Map

Track Data

SID SEASON NUMBER BASIN SUBBASIN NAME ISO_TIME NATURE LAT LON WMO_WIND WMO_PRES WMO_AGENCY TRACK_TYPE DIST2LAND LANDFALL IFLAG USA_AGENCY USA_ATCF_ID USA_LAT USA_LON USA_RECORD USA_STATUS USA_WIND USA_PRES USA_SSHS USA_R34_NE USA_R34_SE USA_R34_SW USA_R34_NW USA_R50_NE USA_R50_SE USA_R50_SW USA_R50_NW USA_R64_NE USA_R64_SE USA_R64_SW USA_R64_NW USA_POCI USA_ROCI USA_RMW USA_EYE TOKYO_LAT TOKYO_LON TOKYO_GRADE TOKYO_WIND TOKYO_PRES TOKYO_R50_DIR TOKYO_R50_LONG TOKYO_R50_SHORT TOKYO_R30_DIR TOKYO_R30_LONG TOKYO_R30_SHORT TOKYO_LAND CMA_LAT CMA_LON CMA_CAT CMA_WIND CMA_PRES HKO_LAT HKO_LON HKO_CAT HKO_WIND HKO_PRES NEWDELHI_LAT NEWDELHI_LON NEWDELHI_GRADE NEWDELHI_WIND NEWDELHI_PRES NEWDELHI_CI NEWDELHI_DP NEWDELHI_POCI REUNION_LAT REUNION_LON REUNION_TYPE REUNION_WIND REUNION_PRES REUNION_TNUM REUNION_CI REUNION_RMW REUNION_R34_NE REUNION_R34_SE REUNION_R34_SW REUNION_R34_NW REUNION_R50_NE REUNION_R50_SE REUNION_R50_SW REUNION_R50_NW REUNION_R64_NE REUNION_R64_SE REUNION_R64_SW REUNION_R64_NW BOM_LAT BOM_LON BOM_TYPE BOM_WIND BOM_PRES BOM_TNUM BOM_CI BOM_RMW BOM_R34_NE BOM_R34_SE BOM_R34_SW BOM_R34_NW BOM_R50_NE BOM_R50_SE BOM_R50_SW BOM_R50_NW BOM_R64_NE BOM_R64_SE BOM_R64_SW BOM_R64_NW BOM_ROCI BOM_POCI BOM_EYE BOM_POS_METHOD BOM_PRES_METHOD NADI_LAT NADI_LON NADI_CAT NADI_WIND NADI_PRES WELLINGTON_LAT WELLINGTON_LON WELLINGTON_WIND WELLINGTON_PRES DS824_LAT DS824_LON DS824_STAGE DS824_WIND DS824_PRES TD9636_LAT TD9636_LON TD9636_STAGE TD9636_WIND TD9636_PRES TD9635_LAT TD9635_LON TD9635_WIND TD9635_PRES TD9635_ROCI NEUMANN_LAT NEUMANN_LON NEUMANN_CLASS NEUMANN_WIND NEUMANN_PRES MLC_LAT MLC_LON MLC_CLASS MLC_WIND MLC_PRES USA_GUST BOM_GUST BOM_GUST_PER REUNION_GUST REUNION_GUST_PER USA_SEAHGT USA_SEARAD_NE USA_SEARAD_SE USA_SEARAD_SW USA_SEARAD_NW STORM_SPEED STORM_DIR
2021308N11257 2021 91 EP MM SANDRA 2021-11-03 18:00:00 NR 11.1000 -103.300 PROVISIONAL 733 733 O_____________ nhc_working_bt EP192021 11.1000 -103.300 DB 20 1010 -3 1012 150 60 8 277
2021308N11257 2021 91 EP MM SANDRA 2021-11-03 21:00:00 NR 11.1501 -103.700 PROVISIONAL 738 738 P_____________ EP192021 11.1501 -103.700 DB 20 1010 -3 1012 150 60 8 277
2021308N11257 2021 91 EP MM SANDRA 2021-11-04 00:00:00 NR 11.2000 -104.100 PROVISIONAL 755 755 O_____________ nhc_working_bt EP192021 11.2000 -104.100 DB 20 1010 -3 1012 150 60 8 277
2021308N11257 2021 91 EP MM SANDRA 2021-11-04 03:00:00 NR 11.2499 -104.500 PROVISIONAL 774 765 P_____________ EP192021 11.2499 -104.500 DB 20 1010 -3 1012 150 60 8 277
2021308N11257 2021 91 EP MM SANDRA 2021-11-04 06:00:00 NR 11.3000 -104.900 PROVISIONAL 786 786 O_____________ nhc_working_bt EP192021 11.3000 -104.900 DB 20 1010 -3 1012 150 60 8 277
2021308N11257 2021 91 EP MM SANDRA 2021-11-04 09:00:00 NR 11.3499 -105.300 PROVISIONAL 803 793 P_____________ EP192021 11.3499 -105.300 DB 20 1010 -3 1012 150 60 8 277
2021308N11257 2021 91 EP MM SANDRA 2021-11-04 12:00:00 NR 11.4000 -105.700 PROVISIONAL 807 807 O_____________ nhc_working_bt EP192021 11.4000 -105.700 DB 20 1010 -3 1012 150 60 8 276
2021308N11257 2021 91 EP MM SANDRA 2021-11-04 15:00:00 NR 11.4425 -106.130 PROVISIONAL 821 814 P_____________ EP192021 11.4425 -106.130 DB 20 1009 -3 1012 150 60 8 277
2021308N11257 2021 91 EP MM SANDRA 2021-11-04 18:00:00 NR 11.5000 -106.500 PROVISIONAL 826 825 O_____________ nhc_working_bt EP192021 11.5000 -106.500 DB 20 1009 -3 1012 150 60 6 284
2021308N11257 2021 91 EP MM SANDRA 2021-11-04 21:00:00 NR 11.5924 -106.730 PROVISIONAL 825 819 P_____________ EP192021 11.5924 -106.730 DB 20 1009 -3 1012 150 60 4 297
2021308N11257 2021 91 EP MM SANDRA 2021-11-05 00:00:00 NR 11.7000 -106.900 PROVISIONAL 824 818 O_____________ nhc_working_bt EP192021 11.7000 -106.900 DB 20 1009 -3 1012 150 60 4 300
2021308N11257 2021 91 EP MM SANDRA 2021-11-05 03:00:00 NR 11.8000 -107.093 PROVISIONAL 823 819 P_____________ EP192021 11.8000 -107.093 DB 22 1009 -3 1012 150 60 4 297
2021308N11257 2021 91 EP MM SANDRA 2021-11-05 06:00:00 NR 11.9000 -107.300 PROVISIONAL 824 820 O_____________ nhc_working_bt EP192021 11.9000 -107.300 DB 25 1009 -3 1012 150 60 5 294
2021308N11257 2021 91 EP MM SANDRA 2021-11-05 09:00:00 NR 11.9925 -107.535 PROVISIONAL 825 825 P_____________ EP192021 11.9925 -107.535 DB 25 1008 -3 1012 150 60 5 292
2021308N11257 2021 91 EP MM SANDRA 2021-11-05 12:00:00 NR 12.1000 -107.800 PROVISIONAL 833 830 O_____________ nhc_working_bt EP192021 12.1000 -107.800 DB 25 1008 -3 1012 150 60 6 294
2021308N11257 2021 91 EP MM SANDRA 2021-11-05 15:00:00 NR 12.2350 -108.093 PROVISIONAL 842 833 P_____________ EP192021 12.2350 -108.093 DB 27 1007 -3 1011 150 60 7 297
2021308N11257 2021 91 EP MM SANDRA 2021-11-05 18:00:00 DS 12.4000 -108.400 PROVISIONAL 843 840 O_____________ nhc_working_bt EP192021 12.4000 -108.400 LO 30 1007 -3 1011 150 60 40 7 302
2021308N11257 2021 91 EP MM SANDRA 2021-11-05 21:00:00 DS 12.6074 -108.692 PROVISIONAL 847 839 P_____________ EP192021 12.6074 -108.692 LO 30 1007 -3 1011 150 60 7 304
2021308N11257 2021 91 EP MM SANDRA 2021-11-06 00:00:00 DS 12.8000 -109.000 PROVISIONAL 845 841 O_____________ nhc_working_bt EP192021 12.8000 -109.000 LO 30 1007 -3 1011 150 60 40 7 297
2021308N11257 2021 91 EP MM SANDRA 2021-11-06 03:00:00 DS 12.9300 -109.343 PROVISIONAL 853 850 P_____________ EP192021 12.9300 -109.343 LO 30 1007 -3 1011 150 60 7 286
2021308N11257 2021 91 EP MM SANDRA 2021-11-06 06:00:00 DS 13.0000 -109.700 PROVISIONAL 869 869 O_____________ nhc_working_bt EP192021 13.0000 -109.700 LO 30 1007 -3 1011 150 60 40 7 276
2021308N11257 2021 91 EP MM SANDRA 2021-11-06 09:00:00 DS 13.0075 -110.058 PROVISIONAL 895 895 P_____________ EP192021 13.0075 -110.058 LO 30 1007 -3 1011 150 60 7 270
2021308N11257 2021 91 EP MM SANDRA 2021-11-06 12:00:00 DS 13.0000 -110.400 PROVISIONAL 916 916 O_____________ nhc_working_bt EP192021 13.0000 -110.400 LO 30 1007 -3 1011 150 60 40 6 274
2021308N11257 2021 91 EP MM SANDRA 2021-11-06 15:00:00 DS 13.0499 -110.707 PROVISIONAL 937 928 P_____________ EP192021 13.0499 -110.707 LO 30 1007 -3 1011 150 50 6 280
2021308N11257 2021 91 EP MM SANDRA 2021-11-06 18:00:00 DS 13.1000 -111.000 PROVISIONAL 950 950 O_____________ nhc_working_bt EP192021 13.1000 -111.000 LO 30 1007 -3 1011 150 40 40 6 274
2021308N11257 2021 91 EP MM SANDRA 2021-11-06 21:00:00 DS 13.0924 -111.285 PROVISIONAL 973 973 P_____________ EP192021 13.0924 -111.285 LO 30 1007 -3 1011 150 45 6 270
2021308N11257 2021 91 EP MM SANDRA 2021-11-07 00:00:00 DS 13.1000 -111.600 PROVISIONAL 996 996 O_____________ nhc_working_bt EP192021 13.1000 -111.600 LO 30 1007 -3 1011 150 50 40 7 278
2021308N11257 2021 91 EP MM SANDRA 2021-11-07 03:00:00 DS 13.1849 -111.963 PROVISIONAL 1019 1019 P_____________ EP192021 13.1849 -111.963 LO 30 1007 -3 1011 150 45 8 284
2021308N11257 2021 91 EP MM SANDRA 2021-11-07 06:00:00 DS 13.3000 -112.400 PROVISIONAL 1041 1041 O_____________ nhc_working_bt EP192021 13.3000 -112.400 LO 30 1007 -3 1011 150 40 40 10 282
2021308N11257 2021 91 EP MM SANDRA 2021-11-07 09:00:00 DS 13.3925 -112.928 PROVISIONAL 1073 1073 P_____________ EP192021 13.3925 -112.928 LO 30 1007 -3 1011 150 40 10 282
2021308N11257 2021 91 EP MM SANDRA 2021-11-07 12:00:00 TS 13.5200 -113.440 PROVISIONAL 1107 1107 O_____________ nhc_working_bt EP192021 13.5000 -113.500 TD 30 1007 -1 1011 150 40 40 11 284
2021308N11257 2021 91 EP MM SANDRA 2021-11-07 15:00:00 TS 13.6602 -114.047 PROVISIONAL 1112 1112 P_____________ EP192021 13.6501 -114.080 TD 32 1006 -1 1011 160 40 12 283
2021308N11257 2021 91 EP MM SANDRA 2021-11-07 18:00:00 TS 13.8000 -114.643 PROVISIONAL 1127 1126 O_____________ nhc_working_bt EP192021 13.8000 -114.600 TS 35 1006 0 80 80 1011 170 40 45 11 285
2021308N11257 2021 91 EP MM SANDRA 2021-11-07 21:00:00 TS 13.9436 -115.135 PROVISIONAL 1141 1136 P_____________ EP192021 13.9148 -114.980 TS 35 1006 0 70 1011 160 40 9 287
2021308N11257 2021 91 EP MM SANDRA 2021-11-08 00:00:00 TS 14.0556 -115.522 PROVISIONAL 1142 1142 O_____________ nhc_working_bt EP192021 14.0000 -115.300 TS 35 1006 0 60 1011 150 40 45 7 282
2021308N11257 2021 91 EP MM SANDRA 2021-11-08 03:00:00 TS 14.0842 -115.823 PROVISIONAL 1158 1158 P_____________ EP192021 14.0425 -115.658 TS 35 1006 0 60 1011 150 55 6 279
2021308N11257 2021 91 EP MM SANDRA 2021-11-08 06:00:00 TS 14.1462 -116.095 PROVISIONAL 1175 1166 O_____________ nhc_working_bt EP192021 14.1000 -116.000 TS 35 1006 0 60 1011 150 70 45 12 75 5 289
2021308N11257 2021 91 EP MM SANDRA 2021-11-08 09:00:00 TS 14.2546 -116.345 PROVISIONAL 1168 1168 P_____________ EP192021 14.2274 -116.293 TS 35 1006 0 65 1011 150 70 12 82 6 300
2021308N11257 2021 91 EP MM SANDRA 2021-11-08 12:00:00 TS 14.4337 -116.600 PROVISIONAL 1177 1163 O_____________ nhc_working_bt EP192021 14.4000 -116.600 TS 35 1006 0 70 1011 150 70 45 12 90 7 314
2021308N11257 2021 91 EP MM SANDRA 2021-11-08 15:00:00 TS 14.7111 -116.837 PROVISIONAL 1163 1156 P_____________ EP192021 14.6000 -116.985 TS 32 1007 -1 1011 150 85 12 90 8 314
2021308N11257 2021 91 EP MM SANDRA 2021-11-08 18:00:00 TS 15.0000 -117.200 PROVISIONAL 1163 1161 O_____________ nhc_working_bt EP192021 14.8000 -117.400 TD 30 1008 -1 1012 150 100 40 12 90 10 298
2021308N11257 2021 91 EP MM SANDRA 2021-11-08 21:00:00 TS 15.1677 -117.714 PROVISIONAL 1181 1181 P_____________ EP192021 14.9949 -117.800 TD 30 1008 -1 1011 135 95 12 75 10 281
2021308N11257 2021 91 EP MM SANDRA 2021-11-09 00:00:00 TS 15.2000 -118.250 PROVISIONAL 1225 1225 O_____________ nhc_working_bt EP192021 15.1000 -118.200 TD 30 1008 -1 1011 120 90 40 12 60 9 264
2021308N11257 2021 91 EP MM SANDRA 2021-11-09 03:00:00 TS 15.0797 -118.650 PROVISIONAL 1263 1263 P_____________ EP192021 15.0373 -118.578 TD 27 1008 -1 1011 120 72 8 249
2021308N11257 2021 91 EP MM SANDRA 2021-11-09 06:00:00 TS 14.9000 -119.050 PROVISIONAL 1302 1309 O_____________ nhc_working_bt EP192021 14.9000 -119.000 TD 25 1009 -1 1012 120 55 35 9 252
2021308N11257 2021 91 EP MM SANDRA 2021-11-09 09:00:00 TS 14.7998 -119.530 PROVISIONAL 1348 1348 P_____________ EP192021 14.8073 -119.505 TD 25 1009 -1 1013 120 55 10 259
2021308N11257 2021 91 EP MM SANDRA 2021-11-09 12:00:00 TS 14.7000 -120.100 PROVISIONAL 1396 1396 O_____________ nhc_working_bt EP192021 14.7000 -120.100 TD 25 1010 -1 1014 120 55 35 12 259
2021308N11257 2021 91 EP MM SANDRA 2021-11-09 15:00:00 TS 14.5630 -120.772 PROVISIONAL 1450 1450 P_____________ EP192021 14.5605 -120.778 TD 25 1010 -1 1014 120 55 14 258
2021308N11257 2021 91 EP MM SANDRA 2021-11-09 18:00:00 DS 14.4000 -121.500 PROVISIONAL 1514 O_____________ nhc_working_bt EP192021 14.4000 -121.500 LO 25 1010 -3 1014 120 55 35 15 257

About IBTrACS Database

This database is a web-friendly format of International Best Track Archive for Climate Stewardship (IBTrACS), a global best track data archive curated by NOAA dating back to 1842.

Updated: 2022-01-14